01:44 Rennrad Innsbruck ARZ - Hatting - Pettnau - Oetztal Bhf - Apfelstr - Moetz
Ort Innsbruck Datum 21.06.2016 16:36:32
Kategorie Rennrad
Distanz 59,99 Kilometer Steigung 229,0 Meter Gefälle -165,0 Meter
Gesamt Zeit 01:46:07 Aktiv 01:44:04 Pause 00:02:03
Durchs. Tempo 34,6 km/h Tempo max. 48,3 km/h Tempo min. 19,9 km/h
Kalorien 0 Durchs. HF 139 BPM HF max. 165 BPM
Wetter 25 °C Clouds Min/Max: 24,0 °C/25,1 °C; Druck: 1021,4 mbar; Rel. Feuchte: 53,9%; Taupunkt: 14,5 °C; Windgeschwindigkeit: 11,0 km/h; Niederschlag: 0,0mm
Ausrüstung Poison - Rennrad
Bontrager - RXL Road
Continental - Grand Prix 4000 S II 25-622
Shimano - HG CN-7901 Dura Ace
Notiz Innsbruck ARZ - Hatting - Pettnau - Oetztal Bhf - Apfelstr - Moetz ... trocken, bis Ötztal Bhf mittlerer bis starker Rückenwind, Rest Gegenwind, flott bis Tempo ... garmin connect
Splits
Distanz (km) Gesamt Zeit Split Zeit Split Tempo Split Tempo Höhenprofil (m)
1,00 00:02:15 00:02:15 00:02:15 26,6 -3,82
2,00 00:04:26 00:02:10 00:02:11 27,6 -3,61
3,00 00:06:17 00:01:51 00:01:52 32,2 2,12
4,00 00:08:02 00:01:44 00:01:45 34,4 1,93
5,00 00:09:44 00:01:42 00:01:42 35,2 3,57
6,00 00:11:44 00:01:59 00:02:00 30,1 10,03
7,00 00:13:32 00:01:47 00:01:48 33,4 -4,44
8,00 00:15:18 00:01:45 00:01:46 34,0 1,12
9,00 00:17:00 00:01:42 00:01:43 35,1 3,42
10,00 00:18:51 00:01:50 00:01:51 32,4 15,19
11,00 00:20:54 00:02:02 00:02:02 29,4 11,67
12,00 00:22:22 00:01:28 00:01:29 40,5 -16,81
13,00 00:23:51 00:01:28 00:01:28 40,7 -6,71
14,00 00:25:33 00:01:42 00:01:42 35,2 5,43
15,00 00:27:15 00:01:42 00:01:42 35,2 0,69
16,00 00:28:59 00:01:43 00:01:43 34,8 1,05
17,00 00:30:42 00:01:43 00:01:43 34,9 5,40
18,00 00:32:40 00:01:58 00:01:58 30,4 13,50
19,00 00:34:19 00:01:38 00:01:39 36,5 -7,46
20,00 00:35:50 00:01:31 00:01:31 39,5 -6,55
21,00 00:37:41 00:01:50 00:01:51 32,5 3,23
22,00 00:39:18 00:01:37 00:01:37 37,0 1,05
23,00 00:40:51 00:01:33 00:01:33 38,7 0,00
24,00 00:42:25 00:01:34 00:01:34 38,2 8,34
25,00 00:43:57 00:01:31 00:01:32 39,3 -3,25
26,00 00:45:31 00:01:33 00:01:34 38,4 2,91
27,00 00:47:07 00:01:35 00:01:36 37,6 1,46
28,00 00:48:48 00:01:41 00:01:42 35,4 -0,57
29,00 00:50:37 00:01:48 00:01:48 33,2 6,63
30,00 00:52:31 00:01:54 00:01:54 31,5 -2,41
31,00 00:54:03 00:01:31 00:01:32 39,2 0,89
32,00 00:55:30 00:01:27 00:01:27 41,2 2,65
33,00 00:57:03 00:01:33 00:01:33 38,6 6,99
34,00 00:58:37 00:01:33 00:01:34 38,4 1,44
35,00 01:00:11 00:01:34 00:01:34 38,2 1,85
36,00 01:01:46 00:01:34 00:01:35 38,0 -1,72
37,00 01:03:20 00:01:33 00:01:34 38,3 3,20
38,00 01:04:58 00:01:38 00:01:38 36,6 1,58
39,00 01:06:37 00:01:38 00:01:38 36,6 -0,03
40,00 01:08:16 00:01:39 00:01:40 36,1 3,44
41,00 01:10:00 00:01:43 00:01:43 34,8 7,58
42,00 01:11:46 00:01:46 00:01:47 33,8 9,31
43,00 01:13:34 00:01:47 00:01:47 33,5 5,36
44,00 01:15:16 00:01:42 00:01:42 35,1 5,21
45,00 01:16:58 00:01:41 00:01:41 35,5 1,54
46,00 01:18:39 00:01:41 00:01:41 35,6 7,50
47,00 01:20:21 00:01:42 00:01:42 35,2 6,21
48,00 01:22:09 00:01:47 00:01:48 33,5 4,33
49,00 01:23:55 00:01:45 00:01:46 34,0 -9,43
50,00 01:25:36 00:01:41 00:01:41 35,5 -4,08
51,00 01:27:17 00:01:41 00:01:41 35,6 -9,92
52,00 01:29:07 00:01:49 00:01:50 32,8 -5,71
53,00 01:31:05 00:01:57 00:01:58 30,5 -1,74
54,00 01:32:56 00:01:51 00:01:51 32,4 -3,42
55,00 01:34:46 00:01:49 00:01:50 32,8 1,58
56,00 01:36:38 00:01:52 00:01:52 32,1 -1,42
57,00 01:38:20 00:01:42 00:01:42 35,2 -5,18
58,00 01:40:11 00:01:50 00:01:51 32,5 -11,21
59,00 01:41:57 00:01:46 00:01:46 33,8 2,14
60,00 01:44:00 00:02:02 00:02:02 29,5 8,16
60,02 01:44:04 00:00:03 00:03:23 17,7 -0,21